Time;durP1;ratioP1;P1;durP2;ratioP2;P2;SDS_P1;SDS_P2;PMS_P1;PMS_P2;Temp;Humidity;BMP_temperature;BMP_pressure;BME280_temperature;BME280_humidity;BME280_pressure;Samples;Min_cycle;Max_cycle;Signal;HPM_P1;HPM_P2
2021/05/13 00:01:22;;;;;;;10.23;8.35;;;11.30;81.40;;;;;;4980572;28;20026;-92
2021/05/13 00:03:53;;;;;;;12.57;7.57;;;11.20;81.40;;;;;;4980407;28;20026;-92
2021/05/13 00:06:19;;;;;;;12.05;6.95;;;11.20;81.40;;;;;;4979724;28;20054;-92
2021/05/13 00:08:45;;;;;;;11.15;7.50;;;11.20;82.00;;;;;;4980451;28;20026;-93
2021/05/13 00:11:12;;;;;;;12.90;8.55;;;11.20;81.40;;;;;;4979637;28;20371;-93
2021/05/13 00:13:39;;;;;;;11.27;8.30;;;11.20;81.50;;;;;;4979769;28;20030;-92
2021/05/13 00:16:07;;;;;;;12.63;8.45;;;11.10;81.40;;;;;;4979848;28;20030;-93
2021/05/13 00:18:33;;;;;;;16.33;8.45;;;11.10;81.50;;;;;;4982329;28;20058;-92
2021/05/13 00:21:00;;;;;;;9.70;7.70;;;11.10;81.50;;;;;;4988745;28;20458;-92
2021/05/13 00:23:26;;;;;;;13.07;8.20;;;11.00;81.60;;;;;;4997275;28;20058;-93
2021/05/13 00:25:52;;;;;;;15.85;10.65;;;11.00;81.70;;;;;;4996962;28;20015;-91
2021/05/13 00:28:21;;;;;;;15.80;11.77;;;11.00;81.80;;;;;;5000274;28;20041;-92
2021/05/13 00:30:47;;;;;;;15.88;11.60;;;11.00;81.90;;;;;;5005368;28;20023;-92
2021/05/13 00:33:13;;;;;;;16.58;11.68;;;10.90;81.90;;;;;;4983547;28;20030;-92
2021/05/13 00:35:39;;;;;;;20.08;13.32;;;10.80;82.10;;;;;;4983724;28;20053;-92
2021/05/13 00:38:04;;;;;;;19.25;13.32;;;10.90;82.30;;;;;;4983907;28;20073;-92
2021/05/13 00:40:30;;;;;;;18.75;12.48;;;10.80;82.40;;;;;;4980916;28;20346;-92
2021/05/13 00:42:56;;;;;;;24.73;13.38;;;10.80;82.50;;;;;;4979196;28;20028;-92
2021/05/13 00:45:22;;;;;;;21.13;13.65;;;10.80;82.50;;;;;;4979094;28;20421;-92
2021/05/13 00:50:24;;;;;;;21.35;14.85;;;10.70;82.50;;;;;;4996352;28;20034;-92
2021/05/13 00:52:50;;;;;;;21.50;14.45;;;10.70;82.60;;;;;;4978761;28;20023;-92
2021/05/13 00:55:18;;;;;;;20.80;13.90;;;10.60;82.80;;;;;;4978874;28;20030;-92
2021/05/13 00:57:47;;;;;;;21.80;15.27;;;10.50;82.90;;;;;;4978945;28;20035;-92
2021/05/13 01:00:36;;;;;;;16.77;12.43;;;10.40;83.10;;;;;;4978632;28;20030;-92
2021/05/13 01:03:02;;;;;;;16.25;10.95;;;10.30;83.10;;;;;;4978867;28;20084;-92
2021/05/13 01:05:29;;;;;;;15.77;10.90;;;10.20;83.20;;;;;;4978626;28;20055;-92
2021/05/13 01:08:00;;;;;;;13.70;10.02;;;10.10;83.40;;;;;;4978750;28;20054;-92
2021/05/13 01:10:27;;;;;;;15.45;10.60;;;10.10;83.60;;;;;;4979667;28;20073;-92
2021/05/13 01:12:55;;;;;;;16.42;10.63;;;10.10;83.80;;;;;;4978860;28;20026;-91
2021/05/13 01:15:26;;;;;;;15.73;11.02;;;10.00;84.00;;;;;;4979093;28;20034;-92
2021/05/13 01:20:37;;;;;;;15.88;10.20;;;10.00;84.00;;;;;;4996074;28;20037;-92
2021/05/13 01:23:04;;;;;;;12.88;9.60;;;10.00;84.00;;;;;;4978437;28;20136;-92
2021/05/13 01:25:30;;;;;;;11.68;8.80;;;10.00;84.10;;;;;;4978694;28;20072;-92
2021/05/13 01:28:00;;;;;;;13.27;9.85;;;10.00;84.20;;;;;;4978787;28;20034;-92
2021/05/13 01:30:28;;;;;;;13.98;9.27;;;10.00;84.30;;;;;;4978492;28;20033;-93
2021/05/13 01:32:57;;;;;;;11.48;9.07;;;9.90;84.20;;;;;;4977816;28;20394;-92
2021/05/13 01:35:23;;;;;;;13.25;9.07;;;9.90;84.20;;;;;;4978409;28;20031;-92
2021/05/13 01:37:59;;;;;;;15.68;9.77;;;9.80;84.20;;;;;;4979522;28;20448;-92
2021/05/13 01:40:24;;;;;;;12.63;9.52;;;9.80;84.20;;;;;;4980640;28;20112;-92
2021/05/13 01:42:50;;;;;;;14.00;10.82;;;9.80;84.20;;;;;;4979629;28;20062;-92
2021/05/13 01:45:16;;;;;;;17.02;11.20;;;9.80;84.30;;;;;;4981261;28;20031;-92
2021/05/13 01:47:41;;;;;;;16.83;11.00;;;9.70;84.30;;;;;;4980022;28;20038;-92
2021/05/13 01:50:07;;;;;;;17.17;11.82;;;9.70;84.50;;;;;;4980386;28;20030;-92
2021/05/13 01:52:35;;;;;;;13.68;9.77;;;9.70;84.60;;;;;;4978331;28;20034;-92
2021/05/13 01:55:01;;;;;;;16.02;11.15;;;9.60;84.50;;;;;;4977908;28;20051;-92
2021/05/13 01:57:27;;;;;;;16.40;11.20;;;9.60;84.60;;;;;;4978482;28;20150;-92
2021/05/13 01:59:52;;;;;;;16.17;10.45;;;9.60;84.70;;;;;;4978039;28;20536;-92
2021/05/13 02:02:21;;;;;;;22.10;11.05;;;9.60;84.70;;;;;;4978137;28;20026;-92
2021/05/13 02:04:47;;;;;;;16.13;10.82;;;9.50;84.70;;;;;;4993770;28;20026;-92
2021/05/13 02:07:13;;;;;;;14.95;10.38;;;9.50;84.70;;;;;;5001694;28;20042;-92
2021/05/13 02:09:38;;;;;;;18.48;11.43;;;9.50;84.80;;;;;;4999214;28;20007;-91
2021/05/13 02:12:04;;;;;;;15.90;11.10;;;9.40;84.90;;;;;;4999696;28;20049;-91
2021/05/13 02:14:31;;;;;;;16.08;10.35;;;9.40;85.20;;;;;;4996770;28;20189;-91
2021/05/13 02:16:57;;;;;;;13.25;9.85;;;9.40;85.20;;;;;;4992978;28;20035;-92
2021/05/13 02:19:23;;;;;;;14.25;10.50;;;9.40;85.30;;;;;;4982472;28;20033;-92
2021/05/13 02:21:48;;;;;;;15.27;9.38;;;9.40;85.40;;;;;;4982359;28;20038;-92
2021/05/13 02:24:14;;;;;;;16.38;9.98;;;9.30;85.50;;;;;;4978796;28;20026;-92
2021/05/13 02:26:40;;;;;;;13.52;9.93;;;9.30;85.50;;;;;;4977859;28;20038;-92
2021/05/13 02:29:05;;;;;;;15.23;10.00;;;9.30;85.70;;;;;;4977970;28;20027;-92
2021/05/13 02:31:31;;;;;;;13.00;9.23;;;9.30;85.80;;;;;;4977951;28;20030;-92
2021/05/13 02:33:57;;;;;;;11.77;8.80;;;9.40;86.00;;;;;;4977850;28;20058;-92
2021/05/13 02:36:22;;;;;;;11.52;7.95;;;9.40;86.20;;;;;;4978123;28;20447;-92
2021/05/13 02:38:48;;;;;;;12.40;8.52;;;9.40;86.20;;;;;;4977877;28;20450;-92
2021/05/13 02:41:14;;;;;;;15.75;8.95;;;9.50;86.30;;;;;;4977705;28;20030;-92
2021/05/13 02:43:40;;;;;;;13.63;8.88;;;9.60;86.40;;;;;;4995074;28;20029;-92
2021/05/13 02:46:05;;;;;;;14.07;9.00;;;9.70;86.20;;;;;;4979664;28;20031;-92
2021/05/13 02:48:31;;;;;;;12.30;8.82;;;9.70;86.00;;;;;;4998710;28;20117;-92
2021/05/13 02:50:57;;;;;;;14.05;7.45;;;9.80;85.90;;;;;;4981568;28;20030;-92
2021/05/13 02:53:23;;;;;;;9.05;6.35;;;9.80;86.00;;;;;;4981609;28;20046;-93
2021/05/13 02:55:48;;;;;;;9.35;7.00;;;9.90;85.80;;;;;;4981547;28;20085;-92
2021/05/13 02:58:14;;;;;;;9.77;6.63;;;9.90;85.60;;;;;;4981696;28;20042;-92
2021/05/13 03:03:14;;;;;;;9.18;6.65;;;10.00;85.30;;;;;;4998756;28;20038;-92
2021/05/13 03:05:40;;;;;;;8.98;6.70;;;10.10;85.20;;;;;;4981065;28;20054;-92
2021/05/13 03:08:06;;;;;;;9.18;6.75;;;10.10;85.20;;;;;;4981007;28;20059;-92
2021/05/13 03:12:59;;;;;;;9.55;7.15;;;10.20;85.00;;;;;;4998910;28;20085;-92
2021/05/13 03:15:25;;;;;;;9.20;6.60;;;10.20;85.00;;;;;;4981100;28;20379;-92
2021/05/13 03:17:51;;;;;;;11.63;7.60;;;10.20;84.80;;;;;;4980884;28;20030;-92
2021/05/13 03:20:22;;;;;;;13.63;6.57;;;10.20;84.50;;;;;;4998401;28;20033;-92
2021/05/13 03:22:53;;;;;;;10.40;6.78;;;10.20;84.20;;;;;;4980834;28;20027;-92
2021/05/13 03:25:25;;;;;;;10.15;7.30;;;10.10;84.10;;;;;;4981485;28;20022;-92
2021/05/13 03:27:55;;;;;;;9.88;7.82;;;10.10;84.20;;;;;;4981446;28;20038;-93
2021/05/13 03:30:24;;;;;;;8.57;7.05;;;10.00;84.20;;;;;;4980952;28;20030;-92
2021/05/13 03:32:51;;;;;;;8.93;6.05;;;10.00;84.40;;;;;;4983708;28;20022;-93
2021/05/13 03:35:17;;;;;;;10.88;6.82;;;10.00;84.40;;;;;;4991647;28;20033;-91
2021/05/13 03:37:43;;;;;;;10.77;6.78;;;10.00;84.30;;;;;;4988483;28;20066;-92
2021/05/13 03:40:09;;;;;;;8.60;6.32;;;10.00;84.20;;;;;;4981369;28;20054;-92
2021/05/13 03:42:35;;;;;;;7.97;5.70;;;10.00;84.20;;;;;;4980084;28;20026;-92
2021/05/13 03:45:01;;;;;;;8.70;6.72;;;10.10;84.40;;;;;;4981067;28;20560;-92
2021/05/13 03:47:26;;;;;;;9.68;6.53;;;10.10;84.40;;;;;;4981431;28;20049;-92
2021/05/13 03:49:52;;;;;;;11.52;6.57;;;10.20;84.50;;;;;;4996844;28;20034;-93
2021/05/13 03:52:18;;;;;;;7.03;5.80;;;10.20;84.40;;;;;;4991779;28;20036;-92
2021/05/13 03:54:44;;;;;;;8.30;6.05;;;10.30;84.10;;;;;;4994898;28;20081;-92
2021/05/13 03:57:10;;;;;;;8.80;5.15;;;10.40;83.90;;;;;;4999377;28;20015;-92
2021/05/13 03:59:38;;;;;;;9.70;6.40;;;10.50;83.80;;;;;;5002697;28;20038;-92
2021/05/13 04:02:38;;;;;;;8.20;6.05;;;10.60;83.60;;;;;;4990514;28;20027;-92
2021/05/13 04:04:56;;;;;;;7.95;5.97;;;10.60;83.50;;;;;;4998032;28;20034;-92
2021/05/13 04:07:22;;;;;;;6.80;5.72;;;10.70;83.30;;;;;;4981240;28;20101;-92
2021/05/13 04:09:48;;;;;;;10.63;6.85;;;10.80;83.10;;;;;;4980465;28;20549;-92
2021/05/13 04:12:14;;;;;;;12.20;7.75;;;10.90;82.60;;;;;;4981208;28;20465;-92
2021/05/13 04:14:40;;;;;;;13.20;7.35;;;11.00;82.30;;;;;;4979974;28;20461;-92
2021/05/13 04:17:07;;;;;;;17.48;7.22;;;11.00;81.90;;;;;;4979955;28;20031;-92
2021/05/13 04:19:34;;;;;;;16.23;8.70;;;11.10;81.80;;;;;;4980185;28;20034;-93
2021/05/13 04:22:00;;;;;;;14.68;8.38;;;11.20;81.50;;;;;;4980954;28;20030;-92
2021/05/13 04:24:26;;;;;;;19.60;10.15;;;11.40;80.90;;;;;;4980423;28;20068;-92
2021/05/13 04:26:52;;;;;;;18.15;10.10;;;11.40;80.50;;;;;;4980895;28;20030;-92
2021/05/13 04:29:18;;;;;;;19.08;10.50;;;11.50;80.20;;;;;;4982397;28;20030;-93
2021/05/13 04:31:43;;;;;;;16.17;9.68;;;11.60;80.10;;;;;;4981475;28;20145;-93
2021/05/13 04:34:09;;;;;;;18.23;9.70;;;11.60;79.80;;;;;;4981563;28;20019;-93
2021/05/13 04:36:42;;;;;;;15.65;8.80;;;11.70;79.50;;;;;;4981905;28;20469;-93
2021/05/13 04:39:08;;;;;;;11.70;7.93;;;11.80;79.00;;;;;;4982647;28;20474;-93
2021/05/13 04:41:36;;;;;;;13.50;6.72;;;11.90;78.90;;;;;;4980221;28;20050;-93
2021/05/13 04:44:04;;;;;;;8.60;7.30;;;11.90;78.50;;;;;;4980867;28;20070;-91
2021/05/13 04:46:31;;;;;;;7.10;6.40;;;12.00;78.40;;;;;;4980140;28;20100;-92
2021/05/13 04:51:29;;;;;;;7.75;6.25;;;12.20;77.80;;;;;;4999427;28;20022;-92
2021/05/13 04:53:56;;;;;;;7.38;6.68;;;12.30;77.70;;;;;;4982467;28;20026;-91
2021/05/13 04:56:22;;;;;;;8.20;7.38;;;12.40;77.20;;;;;;4984519;28;20034;-91
2021/05/13 04:58:48;;;;;;;8.25;7.32;;;12.50;76.90;;;;;;4981094;28;20061;-91
2021/05/13 05:01:15;;;;;;;6.80;6.20;;;12.60;76.70;;;;;;4981095;28;20031;-92
2021/05/13 05:03:41;;;;;;;5.93;5.28;;;12.70;76.80;;;;;;4980563;28;20048;-92
2021/05/13 05:06:07;;;;;;;6.95;5.57;;;12.70;76.30;;;;;;4979221;28;20478;-92
2021/05/13 05:08:33;;;;;;;5.03;4.35;;;12.90;76.00;;;;;;4979571;28;20434;-92
2021/05/13 05:10:58;;;;;;;8.55;5.93;;;13.00;75.60;;;;;;4980547;28;20027;-92
2021/05/13 05:13:24;;;;;;;10.93;8.82;;;13.10;75.00;;;;;;4980108;28;20026;-93
2021/05/13 05:15:50;;;;;;;21.08;14.68;;;13.10;74.70;;;;;;4979483;28;20050;-93
2021/05/13 05:18:17;;;;;;;15.98;11.68;;;13.20;74.50;;;;;;4979887;28;20046;-92
2021/05/13 05:20:43;;;;;;;11.07;8.70;;;13.20;74.30;;;;;;4981308;28;20026;-92
2021/05/13 05:23:10;;;;;;;12.40;7.80;;;13.20;74.20;;;;;;4982396;28;20037;-92
2021/05/13 05:25:36;;;;;;;18.90;11.02;;;13.30;74.20;;;;;;4979050;28;20359;-92
2021/05/13 05:28:10;;;;;;;17.85;10.15;;;13.40;73.90;;;;;;4980092;28;20056;-92
2021/05/13 05:30:37;;;;;;;14.95;10.80;;;13.40;73.70;;;;;;4981160;28;20045;-93
2021/05/13 05:33:10;;;;;;;21.98;12.30;;;13.50;73.90;;;;;;4971961;28;20375;-93
2021/05/13 05:35:37;;;;;;;16.48;11.05;;;13.70;73.50;;;;;;4969297;28;20022;-92
2021/05/13 05:38:04;;;;;;;17.08;8.98;;;13.70;73.30;;;;;;4967591;28;20043;-93
2021/05/13 05:40:30;;;;;;;15.63;9.50;;;13.80;73.00;;;;;;4963827;28;20023;-92
2021/05/13 05:42:56;;;;;;;11.48;7.68;;;13.90;73.00;;;;;;4961913;28;20130;-92
2021/05/13 05:45:25;;;;;;;11.40;7.00;;;14.00;73.00;;;;;;4965314;28;20186;-92
2021/05/13 05:47:52;;;;;;;12.25;8.13;;;14.10;72.70;;;;;;4967809;28;20038;-91
2021/05/13 05:50:19;;;;;;;18.42;11.77;;;14.30;72.50;;;;;;4968384;28;20030;-92
2021/05/13 05:52:48;;;;;;;15.75;10.77;;;14.40;72.00;;;;;;4965883;28;20031;-92
2021/05/13 05:55:14;;;;;;;17.75;11.65;;;14.50;71.60;;;;;;4967787;28;20078;-92
2021/05/13 05:57:45;;;;;;;14.43;8.70;;;14.70;71.60;;;;;;4966176;28;20026;-93
2021/05/13 06:00:17;;;;;;;16.00;9.45;;;14.80;71.30;;;;;;4965779;28;20489;-92
2021/05/13 06:02:48;;;;;;;15.98;9.75;;;14.90;70.80;;;;;;4970447;28;20026;-93
2021/05/13 06:05:19;;;;;;;15.18;9.20;;;15.00;70.40;;;;;;4975219;28;20031;-93
2021/05/13 06:07:47;;;;;;;15.32;10.10;;;15.10;70.20;;;;;;4978867;28;20042;-93
2021/05/13 06:10:16;;;;;;;11.60;7.28;;;15.20;69.90;;;;;;4979591;28;20042;-92
2021/05/13 06:12:45;;;;;;;14.50;9.93;;;15.30;69.60;;;;;;4980126;28;20042;-93
2021/05/13 06:15:18;;;;;;;11.85;7.40;;;15.40;69.00;;;;;;4996320;28;20058;-93
2021/05/13 06:17:47;;;;;;;11.32;6.50;;;15.50;68.80;;;;;;4991330;28;20038;-92
2021/05/13 06:20:24;;;;;;;6.00;5.00;;;15.50;68.80;;;;;;4971865;28;20081;-92
2021/05/13 06:22:54;;;;;;;3.95;3.55;;;15.70;68.10;;;;;;4974254;28;20030;-93
2021/05/13 06:25:26;;;;;;;5.47;3.30;;;15.70;67.60;;;;;;4987562;28;20031;-93
2021/05/13 06:28:01;;;;;;;6.25;3.90;;;15.80;67.30;;;;;;4973087;28;20039;-93
2021/05/13 06:30:27;;;;;;;2.45;2.25;;;16.00;67.10;;;;;;4970502;28;20031;-93
2021/05/13 06:32:58;;;;;;;3.28;2.75;;;16.10;66.80;;;;;;4968551;28;20061;-93
2021/05/13 06:35:31;;;;;;;3.65;2.95;;;16.10;66.60;;;;;;4971791;28;20027;-93
2021/05/13 06:38:10;;;;;;;4.25;3.53;;;16.30;66.00;;;;;;4973982;28;20033;-92
2021/05/13 06:40:45;;;;;;;2.95;2.65;;;16.40;65.50;;;;;;4975344;28;20038;-93
2021/05/13 06:43:19;;;;;;;3.38;2.53;;;16.40;65.60;;;;;;4972914;28;20091;-92
2021/05/13 06:45:47;;;;;;;2.67;2.47;;;16.50;65.00;;;;;;4981287;28;20090;-92
2021/05/13 06:48:46;;;;;;;2.97;2.20;;;16.70;64.20;;;;;;4990687;28;20053;-93
2021/05/13 06:51:21;;;;;;;2.22;1.80;;;16.90;62.70;;;;;;4989487;28;20038;-93
2021/05/13 06:54:12;;;;;;;2.35;1.98;;;17.00;62.50;;;;;;4994406;28;20030;-92
2021/05/13 06:56:47;;;;;;;2.80;2.60;;;17.10;62.00;;;;;;4992701;28;20094;-93
2021/05/13 06:59:16;;;;;;;1.95;1.85;;;17.20;62.00;;;;;;4991772;28;20030;-92
2021/05/13 07:01:55;;;;;;;1.85;1.75;;;17.10;61.30;;;;;;4991615;28;20026;-93
2021/05/13 07:07:23;;;;;;;1.65;1.55;;;17.00;60.90;;;;;;4992137;28;20061;-93
2021/05/13 07:09:49;;;;;;;3.65;1.60;;;17.00;61.40;;;;;;4990963;28;20064;-94
2021/05/13 07:12:18;;;;;;;1.50;1.40;;;17.10;61.20;;;;;;4992122;28;20030;-92
2021/05/13 07:15:06;;;;;;;2.22;1.63;;;17.20;61.10;;;;;;4990007;28;20022;-94
2021/05/13 07:17:41;;;;;;;1.42;1.33;;;17.30;60.30;;;;;;4986622;28;20038;-93
2021/05/13 07:20:10;;;;;;;2.15;1.58;;;17.50;59.50;;;;;;4985709;28;20032;-93
2021/05/13 07:22:38;;;;;;;2.17;1.48;;;17.70;59.10;;;;;;4986646;28;20026;-93
2021/05/13 07:25:05;;;;;;;1.35;1.20;;;17.90;58.40;;;;;;5004542;28;20026;-93
2021/05/13 07:27:49;;;;;;;1.60;1.40;;;18.00;57.70;;;;;;4987616;28;20129;-93
2021/05/13 07:30:15;;;;;;;;;;;18.00;56.40;;;;;;4989797;28;20030;-93
2021/05/13 07:32:41;;;;;;;3.58;1.70;;;18.10;55.80;;;;;;5006125;28;20004;-93
2021/05/13 07:35:16;;;;;;;2.25;2.05;;;18.10;56.40;;;;;;4995937;28;20026;-92
2021/05/13 07:37:42;;;;;;;2.33;2.03;;;18.00;56.80;;;;;;4996543;28;20030;-93
2021/05/13 07:40:17;;;;;;;2.72;1.98;;;18.00;57.30;;;;;;4988774;28;20473;-92
2021/05/13 07:42:43;;;;;;;2.42;2.22;;;17.90;57.10;;;;;;4991760;28;20049;-93
2021/05/13 07:45:10;;;;;;;4.15;1.95;;;17.80;57.20;;;;;;4991025;28;20470;-93
2021/05/13 07:47:39;;;;;;;2.58;2.33;;;17.60;57.40;;;;;;4995079;28;20025;-94
2021/05/13 07:50:12;;;;;;;3.08;2.70;;;17.60;57.70;;;;;;4996880;28;20018;-92
2021/05/13 07:52:39;;;;;;;3.03;2.30;;;17.60;58.30;;;;;;4994427;28;20070;-93
2021/05/13 07:55:07;;;;;;;2.72;2.33;;;17.60;59.30;;;;;;4988988;28;20041;-93
2021/05/13 07:57:37;;;;;;;3.42;3.13;;;17.80;59.20;;;;;;4988936;28;20040;-92
2021/05/13 08:00:06;;;;;;;3.42;2.97;;;18.00;58.80;;;;;;4988494;28;20056;-92
2021/05/13 08:02:32;;;;;;;2.90;2.65;;;18.00;58.00;;;;;;4985438;28;20043;-93
2021/05/13 08:04:58;;;;;;;3.80;2.70;;;17.90;58.30;;;;;;4986462;28;20137;-93
2021/05/13 08:07:23;;;;;;;4.43;3.20;;;17.90;58.60;;;;;;4988052;28;20054;-91
2021/05/13 08:09:50;;;;;;;3.15;2.35;;;17.90;58.60;;;;;;4991897;28;20061;-93
2021/05/13 08:12:16;;;;;;;2.72;2.53;;;17.90;58.50;;;;;;5009199;28;20050;-93
2021/05/13 08:14:48;;;;;;;3.03;2.70;;;17.70;59.00;;;;;;4991562;28;20150;-92
2021/05/13 08:17:16;;;;;;;2.85;2.60;;;17.80;59.30;;;;;;4997813;28;20026;-93
2021/05/13 08:19:42;;;;;;;3.50;3.20;;;17.80;59.60;;;;;;4999661;28;20091;-92
2021/05/13 08:22:10;;;;;;;2.75;2.22;;;17.90;59.40;;;;;;5000669;28;20014;-93
2021/05/13 08:24:36;;;;;;;3.17;2.72;;;17.80;59.20;;;;;;4993322;28;20343;-92
2021/05/13 08:27:02;;;;;;;3.85;3.17;;;17.80;59.40;;;;;;4989980;28;20105;-92
2021/05/13 08:29:29;;;;;;;4.35;3.08;;;17.90;59.40;;;;;;4989058;28;20037;-93
2021/05/13 08:31:55;;;;;;;4.60;3.05;;;17.90;59.40;;;;;;4991612;28;20053;-92
2021/05/13 08:34:27;;;;;;;3.25;2.95;;;18.00;59.20;;;;;;4989586;28;20023;-94
2021/05/13 08:36:54;;;;;;;3.88;2.50;;;18.10;59.80;;;;;;4986364;28;20354;-94
2021/05/13 08:39:20;;;;;;;3.55;2.85;;;18.20;58.90;;;;;;4984581;28;20075;-93
2021/05/13 08:41:46;;;;;;;3.53;2.80;;;18.30;58.50;;;;;;4984971;28;20026;-92
2021/05/13 08:44:13;;;;;;;3.83;2.67;;;18.40;57.80;;;;;;4987040;28;20057;-93
2021/05/13 08:46:47;;;;;;;2.67;2.38;;;18.50;56.90;;;;;;4985186;28;20467;-93
2021/05/13 08:49:13;;;;;;;3.03;2.70;;;18.30;56.50;;;;;;4985420;28;20030;-93
2021/05/13 08:51:40;;;;;;;2.40;2.20;;;18.10;56.80;;;;;;5001541;28;20053;-92
2021/05/13 08:54:06;;;;;;;3.13;2.70;;;17.80;57.10;;;;;;4982529;28;20469;-93
2021/05/13 08:56:38;;;;;;;2.67;2.45;;;17.70;57.70;;;;;;4986452;28;20026;-93
2021/05/13 08:59:06;;;;;;;3.53;2.35;;;17.70;58.00;;;;;;4991928;28;20037;-92
2021/05/13 09:01:51;;;;;;;3.83;2.83;;;17.70;58.30;;;;;;4990852;28;20026;-92
2021/05/13 09:04:17;;;;;;;3.10;2.58;;;17.60;58.20;;;;;;4975735;28;20061;-93
2021/05/13 09:17:27;;;;;;;2.80;2.50;;;17.60;59.00;;;;;;4861223;29;20031;-91
2021/05/13 09:20:07;;;;;;;;;;;17.70;58.10;;;;;;4942920;29;20039;-91
2021/05/13 09:22:40;;;;;;;2.47;2.15;;;17.60;57.80;;;;;;4944028;29;19906;-92
2021/05/13 09:25:15;;;;;;;2.42;2.22;;;17.60;58.50;;;;;;4906655;29;20119;-92
2021/05/13 09:28:05;;;;;;;6.43;2.97;;;17.70;58.20;;;;;;4932847;29;20036;-90
2021/05/13 09:30:40;;;;;;;2.13;2.03;;;17.70;58.20;;;;;;4920471;29;20131;-92
2021/05/13 09:33:32;;;;;;;2.15;1.98;;;17.70;58.10;;;;;;4936630;29;20050;-92
2021/05/13 09:36:57;;;;;;;2.60;2.40;;;17.70;58.60;;;;;;4938510;29;20028;-92
2021/05/13 09:40:20;;;;;;;2.70;2.50;;;17.60;58.60;;;;;;4971034;28;20042;-91
2021/05/13 09:43:46;;;;;;;;;;;;;;;;;;;;;
2021/05/13 09:47:01;;;;;;;2.10;1.90;;;17.60;58.10;;;;;;4976596;28;20035;-92
2021/05/13 09:49:43;;;;;;;;;;;;;;;;;;;;;
2021/05/13 09:55:41;;;;;;;2.78;2.58;;;17.60;58.70;;;;;;4979294;28;20042;-91
2021/05/13 09:58:10;;;;;;;2.05;1.90;;;17.60;58.60;;;;;;4986867;28;20027;-92
2021/05/13 10:01:16;;;;;;;2.33;2.13;;;17.60;57.90;;;;;;4961201;28;20438;-92
2021/05/13 10:04:13;;;;;;;2.92;2.63;;;17.60;57.30;;;;;;4915201;28;20043;-93
2021/05/13 10:07:21;;;;;;;2.15;1.98;;;17.60;58.00;;;;;;4935804;29;20055;-92
2021/05/13 10:13:19;;;;;;;2.40;2.20;;;17.60;57.80;;;;;;4914330;29;20032;-91
2021/05/13 10:16:14;;;;;;;2.85;2.30;;;17.60;57.80;;;;;;4950557;28;20130;-91
2021/05/13 10:18:47;;;;;;;2.33;2.05;;;17.60;58.10;;;;;;4962486;28;20030;-91
2021/05/13 10:24:45;;;;;;;2.03;1.63;;;17.50;58.40;;;;;;4946623;28;20140;-92
2021/05/13 10:27:39;;;;;;;2.25;2.05;;;17.60;58.10;;;;;;5004802;28;20102;-95
2021/05/13 10:30:05;;;;;;;2.35;1.80;;;17.60;57.00;;;;;;4984911;28;20031;-92
2021/05/13 10:33:03;;;;;;;1.83;1.73;;;17.50;57.40;;;;;;4994269;28;20018;-91
2021/05/13 10:35:33;;;;;;;1.70;1.60;;;17.60;57.20;;;;;;4994089;28;20029;-93
2021/05/13 10:38:05;;;;;;;1.77;1.67;;;17.60;57.40;;;;;;4985165;28;20027;-93
2021/05/13 10:41:19;;;;;;;3.15;1.90;;;17.60;57.40;;;;;;4967486;28;20035;-92
2021/05/13 10:43:38;;;;;;;2.50;2.30;;;17.80;57.60;;;;;;4985333;28;20082;-92
2021/05/13 10:46:36;;;;;;;1.85;1.63;;;18.00;57.20;;;;;;5000045;28;20043;-92
2021/05/13 10:49:23;;;;;;;4.57;2.00;;;18.30;56.90;;;;;;4984723;28;20038;-93
2021/05/13 10:52:35;;;;;;;2.15;1.70;;;18.50;56.80;;;;;;4987258;28;20089;-92
2021/05/13 10:55:42;;;;;;;3.28;1.77;;;18.80;55.50;;;;;;4969830;28;20036;-93
2021/05/13 10:58:53;;;;;;;2.63;2.25;;;18.80;55.20;;;;;;4967699;28;20494;-92
2021/05/13 11:02:01;;;;;;;;;;;;;;;;;;;;;
2021/05/13 11:05:20;;;;;;;2.33;1.67;;;18.90;55.50;;;;;;5004815;28;20062;-91
2021/05/13 11:11:15;;;;;;;2.20;2.00;;;19.10;54.60;;;;;;4933635;29;20088;-91
2021/05/13 11:14:13;;;;;;;2.40;2.20;;;19.00;54.50;;;;;;4927331;29;20130;-93
2021/05/13 11:17:04;;;;;;;1.80;1.70;;;18.90;54.50;;;;;;4925410;28;20092;-92
2021/05/13 11:20:19;;;;;;;1.80;1.70;;;18.90;54.50;;;;;;4982579;28;20034;-91
2021/05/13 11:23:21;;;;;;;1.70;1.60;;;19.10;54.80;;;;;;4987155;28;20034;-92
2021/05/13 11:26:17;;;;;;;2.80;2.08;;;19.20;54.90;;;;;;4976226;28;20430;-92
2021/05/13 11:29:04;;;;;;;1.73;1.63;;;19.40;54.50;;;;;;4978582;28;20046;-94
2021/05/13 11:31:34;;;;;;;2.20;1.70;;;19.50;55.20;;;;;;4957713;28;20039;-93
2021/05/13 11:34:31;;;;;;;1.50;1.40;;;19.60;54.60;;;;;;4990456;28;20400;-93
2021/05/13 11:37:04;;;;;;;1.73;1.63;;;19.70;54.40;;;;;;4982249;28;20030;-91
2021/05/13 11:39:31;;;;;;;4.72;1.73;;;19.80;54.50;;;;;;4983517;28;20034;-93
2021/05/13 11:42:02;;;;;;;1.40;1.30;;;19.80;53.90;;;;;;4992332;28;20065;-92
2021/05/13 11:44:58;;;;;;;2.20;1.98;;;19.80;54.30;;;;;;4947992;28;20058;-92
2021/05/13 11:47:38;;;;;;;2.00;1.90;;;19.80;54.40;;;;;;4963764;28;20041;-92
2021/05/13 11:50:32;;;;;;;1.95;1.75;;;19.80;53.40;;;;;;4933580;28;20039;-92
2021/05/13 11:53:32;;;;;;;1.83;1.73;;;19.60;53.60;;;;;;4986617;28;20038;-90
2021/05/13 11:56:00;;;;;;;1.70;1.60;;;19.40;54.30;;;;;;4989626;28;20106;-92
2021/05/13 11:59:08;;;;;;;1.48;1.30;;;19.20;54.50;;;;;;4992525;28;20097;-93
2021/05/13 12:02:01;;;;;;;1.90;1.77;;;19.20;54.30;;;;;;5007840;28;20036;-93
2021/05/13 12:04:37;;;;;;;1.60;1.50;;;19.10;54.10;;;;;;4982766;28;20041;-91
2021/05/13 12:07:07;;;;;;;1.77;1.67;;;18.90;55.00;;;;;;4967613;28;20077;-90
2021/05/13 12:09:35;;;;;;;1.55;1.45;;;18.90;54.90;;;;;;4966271;28;20454;-91
2021/05/13 12:12:03;;;;;;;1.60;1.50;;;18.80;55.00;;;;;;4985073;28;20026;-91
2021/05/13 12:14:34;;;;;;;1.75;1.60;;;18.70;55.40;;;;;;5003766;28;20022;-92
2021/05/13 12:17:03;;;;;;;1.75;1.65;;;18.80;55.20;;;;;;4987127;28;20381;-93
2021/05/13 12:19:32;;;;;;;1.73;1.55;;;18.70;55.20;;;;;;4984246;28;20037;-91
2021/05/13 12:22:06;;;;;;;2.05;1.58;;;18.70;55.20;;;;;;4976673;28;20035;-91
2021/05/13 12:24:37;;;;;;;2.15;1.55;;;18.70;54.90;;;;;;4991261;28;20026;-94
2021/05/13 12:27:09;;;;;;;2.42;2.15;;;18.60;55.10;;;;;;5001363;28;20034;-93
2021/05/13 12:29:49;;;;;;;2.08;1.85;;;18.50;55.20;;;;;;5003727;28;20050;-94
2021/05/13 12:32:34;;;;;;;1.92;1.83;;;18.40;55.70;;;;;;5000748;28;20054;-95
2021/05/13 12:35:50;;;;;;;;;;;;;;;;;;;;;
2021/05/13 12:38:22;;;;;;;1.80;1.70;;;18.10;56.50;;;;;;4986742;28;20106;-90
2021/05/13 12:41:41;;;;;;;;;;;;;;;;;;;;;
2021/05/13 12:44:16;;;;;;;1.90;1.77;;;18.00;56.90;;;;;;4989604;28;20100;-91
2021/05/13 12:47:12;;;;;;;1.70;1.60;;;18.00;57.00;;;;;;4995722;28;20101;-90
2021/05/13 12:50:06;;;;;;;2.00;1.90;;;18.00;57.10;;;;;;4974706;28;20039;-90
2021/05/13 12:52:40;;;;;;;1.73;1.63;;;18.10;57.10;;;;;;4981785;28;20030;-92
2021/05/13 12:55:22;;;;;;;1.92;1.80;;;18.10;57.10;;;;;;4985623;28;20179;-93
2021/05/13 12:57:47;;;;;;;2.53;2.05;;;18.20;56.80;;;;;;4989896;28;20042;-92
2021/05/13 13:00:15;;;;;;;3.42;2.70;;;18.20;56.10;;;;;;4984796;28;20035;-91
2021/05/13 13:03:05;;;;;;;2.75;2.00;;;18.30;54.90;;;;;;4963016;28;20189;-91
2021/05/13 13:06:02;;;;;;;2.65;2.03;;;18.40;51.90;;;;;;4948190;28;20065;-91
2021/05/13 13:09:05;;;;;;;2.15;1.95;;;18.50;52.60;;;;;;4991391;28;20596;-90
2021/05/13 13:12:01;;;;;;;3.55;1.92;;;18.50;50.70;;;;;;5001263;28;20058;-92
2021/05/13 13:14:47;;;;;;;2.30;2.10;;;18.50;49.90;;;;;;4990379;28;20035;-92
2021/05/13 13:18:05;;;;;;;5.00;1.73;;;18.60;50.00;;;;;;4952444;28;20478;-93
2021/05/13 13:21:31;;;;;;;1.92;1.70;;;18.60;49.50;;;;;;4947111;29;20039;-92
2021/05/13 13:24:26;;;;;;;4.53;3.03;;;18.60;49.30;;;;;;4909370;29;20080;-92
2021/05/13 13:27:16;;;;;;;;;;;18.70;49.30;;;;;;4927052;29;20076;-93
2021/05/13 13:29:48;;;;;;;4.88;2.58;;;18.70;49.00;;;;;;4910524;29;19911;-91
2021/05/13 13:32:27;;;;;;;5.10;2.75;;;18.80;49.60;;;;;;4907683;29;20047;-92
2021/05/13 13:35:38;;;;;;;3.10;2.80;;;18.90;48.70;;;;;;4945069;28;20034;-93
2021/05/13 13:38:17;;;;;;;5.25;2.65;;;19.00;48.20;;;;;;4959304;28;20038;-92
2021/05/13 13:41:20;;;;;;;3.00;2.70;;;19.10;48.80;;;;;;4954154;28;20038;-92
2021/05/13 13:43:47;;;;;;;3.45;2.38;;;19.30;47.90;;;;;;4968737;28;20042;-93
2021/05/13 13:46:39;;;;;;;2.45;2.25;;;19.50;48.30;;;;;;4984214;28;20026;-92
2021/05/13 13:49:15;;;;;;;2.35;2.15;;;19.70;48.10;;;;;;4997570;28;20038;-92
2021/05/13 13:52:01;;;;;;;;;;;;;;;;;;;;;
2021/05/13 13:55:05;;;;;;;2.85;2.20;;;20.40;47.90;;;;;;4976313;28;20042;-91
2021/05/13 13:57:35;;;;;;;1.97;1.87;;;21.40;45.50;;;;;;4906129;29;20051;-91
2021/05/13 14:00:40;;;;;;;4.40;2.15;;;22.20;46.70;;;;;;4955709;28;20046;-92
2021/05/13 14:03:46;;;;;;;;;;;;;;;;;;;;;
2021/05/13 14:06:28;;;;;;;;;;;;;;;;;;;;;
2021/05/13 14:09:26;;;;;;;1.90;1.80;;;25.20;44.20;;;;;;4997752;28;20050;-92
2021/05/13 14:11:55;;;;;;;4.32;2.35;;;25.80;42.10;;;;;;4989066;28;20028;-91